sensor_id;sensor_type;location;lat;lon;timestamp;P1;durP1;ratioP1;P2;durP2;ratioP2
23716;SDS011;22094;52.130;5.598;2022-11-13T00:01:10;43.65;;;28.60;;
23716;SDS011;22094;52.130;5.598;2022-11-13T00:03:41;44.95;;;28.63;;
23716;SDS011;22094;52.130;5.598;2022-11-13T00:06:07;46.10;;;28.65;;
23716;SDS011;22094;52.130;5.598;2022-11-13T00:08:33;46.38;;;27.38;;
23716;SDS011;22094;52.130;5.598;2022-11-13T00:11:00;38.03;;;26.73;;
23716;SDS011;22094;52.130;5.598;2022-11-13T00:13:45;41.08;;;27.05;;
23716;SDS011;22094;52.130;5.598;2022-11-13T00:16:13;43.05;;;28.02;;
23716;SDS011;22094;52.130;5.598;2022-11-13T00:18:41;43.33;;;28.40;;
23716;SDS011;22094;52.130;5.598;2022-11-13T00:21:07;44.53;;;28.27;;
23716;SDS011;22094;52.130;5.598;2022-11-13T00:23:35;47.13;;;28.52;;
23716;SDS011;22094;52.130;5.598;2022-11-13T00:26:08;44.05;;;27.83;;
23716;SDS011;22094;52.130;5.598;2022-11-13T00:28:35;43.88;;;26.65;;
23716;SDS011;22094;52.130;5.598;2022-11-13T00:31:01;47.17;;;29.33;;
23716;SDS011;22094;52.130;5.598;2022-11-13T00:33:28;48.78;;;29.27;;
23716;SDS011;22094;52.130;5.598;2022-11-13T00:36:00;44.20;;;28.83;;
23716;SDS011;22094;52.130;5.598;2022-11-13T00:38:38;42.40;;;28.42;;
23716;SDS011;22094;52.130;5.598;2022-11-13T00:41:04;44.67;;;28.20;;
23716;SDS011;22094;52.130;5.598;2022-11-13T00:43:29;44.55;;;27.67;;
23716;SDS011;22094;52.130;5.598;2022-11-13T00:45:55;46.35;;;28.83;;
23716;SDS011;22094;52.130;5.598;2022-11-13T00:48:21;45.88;;;28.60;;
23716;SDS011;22094;52.130;5.598;2022-11-13T00:50:47;48.70;;;27.95;;
23716;SDS011;22094;52.130;5.598;2022-11-13T00:53:12;47.33;;;28.90;;
23716;SDS011;22094;52.130;5.598;2022-11-13T00:55:38;46.78;;;28.13;;
23716;SDS011;22094;52.130;5.598;2022-11-13T00:58:03;47.75;;;28.33;;
23716;SDS011;22094;52.130;5.598;2022-11-13T01:00:29;50.33;;;28.80;;
23716;SDS011;22094;52.130;5.598;2022-11-13T01:02:59;45.63;;;29.05;;
23716;SDS011;22094;52.130;5.598;2022-11-13T01:05:25;53.00;;;31.35;;
23716;SDS011;22094;52.130;5.598;2022-11-13T01:07:51;45.92;;;29.95;;
23716;SDS011;22094;52.130;5.598;2022-11-13T01:10:17;45.38;;;28.70;;
23716;SDS011;22094;52.130;5.598;2022-11-13T01:12:42;42.47;;;27.08;;
23716;SDS011;22094;52.130;5.598;2022-11-13T01:15:08;45.47;;;27.10;;
23716;SDS011;22094;52.130;5.598;2022-11-13T01:17:34;44.22;;;27.65;;
23716;SDS011;22094;52.130;5.598;2022-11-13T01:19:59;44.90;;;28.17;;
23716;SDS011;22094;52.130;5.598;2022-11-13T01:22:25;43.00;;;27.27;;
23716;SDS011;22094;52.130;5.598;2022-11-13T01:24:51;47.45;;;28.00;;
23716;SDS011;22094;52.130;5.598;2022-11-13T01:27:16;41.10;;;26.92;;
23716;SDS011;22094;52.130;5.598;2022-11-13T01:29:42;42.05;;;27.83;;
23716;SDS011;22094;52.130;5.598;2022-11-13T01:32:08;47.63;;;29.25;;
23716;SDS011;22094;52.130;5.598;2022-11-13T01:34:34;46.90;;;27.58;;
23716;SDS011;22094;52.130;5.598;2022-11-13T01:36:59;50.55;;;28.60;;
23716;SDS011;22094;52.130;5.598;2022-11-13T01:39:25;43.38;;;28.05;;
23716;SDS011;22094;52.130;5.598;2022-11-13T01:41:50;50.28;;;30.88;;
23716;SDS011;22094;52.130;5.598;2022-11-13T01:44:17;55.10;;;33.40;;
23716;SDS011;22094;52.130;5.598;2022-11-13T01:46:44;55.90;;;33.53;;
23716;SDS011;22094;52.130;5.598;2022-11-13T01:51:55;59.97;;;35.22;;
23716;SDS011;22094;52.130;5.598;2022-11-13T01:54:24;64.72;;;36.35;;
23716;SDS011;22094;52.130;5.598;2022-11-13T01:56:54;51.85;;;33.45;;
23716;SDS011;22094;52.130;5.598;2022-11-13T01:59:22;65.57;;;34.35;;
23716;SDS011;22094;52.130;5.598;2022-11-13T02:01:49;49.35;;;31.35;;
23716;SDS011;22094;52.130;5.598;2022-11-13T02:04:15;51.28;;;33.03;;
23716;SDS011;22094;52.130;5.598;2022-11-13T02:09:11;49.42;;;30.58;;
23716;SDS011;22094;52.130;5.598;2022-11-13T02:11:38;48.08;;;29.27;;
23716;SDS011;22094;52.130;5.598;2022-11-13T02:14:04;46.47;;;27.85;;
23716;SDS011;22094;52.130;5.598;2022-11-13T02:16:31;43.55;;;26.08;;
23716;SDS011;22094;52.130;5.598;2022-11-13T02:18:58;43.80;;;26.35;;
23716;SDS011;22094;52.130;5.598;2022-11-13T02:21:29;39.10;;;25.50;;
23716;SDS011;22094;52.130;5.598;2022-11-13T02:24:19;46.17;;;27.95;;
23716;SDS011;22094;52.130;5.598;2022-11-13T02:26:53;49.65;;;27.80;;
23716;SDS011;22094;52.130;5.598;2022-11-13T02:29:22;36.90;;;23.80;;
23716;SDS011;22094;52.130;5.598;2022-11-13T02:31:48;35.22;;;23.67;;
23716;SDS011;22094;52.130;5.598;2022-11-13T02:34:13;35.05;;;22.77;;
23716;SDS011;22094;52.130;5.598;2022-11-13T02:36:39;36.25;;;24.08;;
23716;SDS011;22094;52.130;5.598;2022-11-13T02:39:08;37.58;;;23.15;;
23716;SDS011;22094;52.130;5.598;2022-11-13T02:41:35;36.58;;;24.42;;
23716;SDS011;22094;52.130;5.598;2022-11-13T02:44:02;43.17;;;24.20;;
23716;SDS011;22094;52.130;5.598;2022-11-13T02:46:31;35.47;;;23.55;;
23716;SDS011;22094;52.130;5.598;2022-11-13T02:48:57;34.28;;;22.33;;
23716;SDS011;22094;52.130;5.598;2022-11-13T02:51:23;31.20;;;22.02;;
23716;SDS011;22094;52.130;5.598;2022-11-13T02:53:49;34.08;;;22.42;;
23716;SDS011;22094;52.130;5.598;2022-11-13T02:56:14;35.28;;;22.63;;
23716;SDS011;22094;52.130;5.598;2022-11-13T02:58:40;34.38;;;22.20;;
23716;SDS011;22094;52.130;5.598;2022-11-13T03:01:05;37.58;;;22.30;;
23716;SDS011;22094;52.130;5.598;2022-11-13T03:03:31;33.60;;;22.38;;
23716;SDS011;22094;52.130;5.598;2022-11-13T03:05:57;38.53;;;23.52;;
23716;SDS011;22094;52.130;5.598;2022-11-13T03:08:23;39.33;;;23.38;;
23716;SDS011;22094;52.130;5.598;2022-11-13T03:10:50;41.10;;;24.23;;
23716;SDS011;22094;52.130;5.598;2022-11-13T03:13:16;38.40;;;23.45;;
23716;SDS011;22094;52.130;5.598;2022-11-13T03:15:42;36.67;;;22.42;;
23716;SDS011;22094;52.130;5.598;2022-11-13T03:18:08;38.83;;;23.33;;
23716;SDS011;22094;52.130;5.598;2022-11-13T03:20:36;40.92;;;24.85;;
23716;SDS011;22094;52.130;5.598;2022-11-13T03:23:03;39.10;;;23.65;;
23716;SDS011;22094;52.130;5.598;2022-11-13T03:25:29;37.83;;;23.05;;
23716;SDS011;22094;52.130;5.598;2022-11-13T03:27:54;37.92;;;23.65;;
23716;SDS011;22094;52.130;5.598;2022-11-13T03:30:20;36.78;;;24.98;;
23716;SDS011;22094;52.130;5.598;2022-11-13T03:32:46;40.72;;;24.05;;
23716;SDS011;22094;52.130;5.598;2022-11-13T03:35:11;41.88;;;24.67;;
23716;SDS011;22094;52.130;5.598;2022-11-13T03:37:37;40.65;;;24.13;;
23716;SDS011;22094;52.130;5.598;2022-11-13T03:40:03;43.03;;;24.55;;
23716;SDS011;22094;52.130;5.598;2022-11-13T03:42:28;40.95;;;25.67;;
23716;SDS011;22094;52.130;5.598;2022-11-13T03:44:54;39.47;;;25.10;;
23716;SDS011;22094;52.130;5.598;2022-11-13T03:47:20;37.00;;;22.88;;
23716;SDS011;22094;52.130;5.598;2022-11-13T03:49:45;36.80;;;23.33;;
23716;SDS011;22094;52.130;5.598;2022-11-13T03:52:11;36.75;;;22.67;;
23716;SDS011;22094;52.130;5.598;2022-11-13T03:54:36;31.10;;;22.00;;
23716;SDS011;22094;52.130;5.598;2022-11-13T03:57:02;33.40;;;22.10;;
23716;SDS011;22094;52.130;5.598;2022-11-13T03:59:27;33.45;;;21.10;;
23716;SDS011;22094;52.130;5.598;2022-11-13T04:01:53;33.70;;;21.25;;
23716;SDS011;22094;52.130;5.598;2022-11-13T04:04:18;29.33;;;19.98;;
23716;SDS011;22094;52.130;5.598;2022-11-13T04:06:44;31.50;;;19.33;;
23716;SDS011;22094;52.130;5.598;2022-11-13T04:09:10;27.23;;;19.00;;
23716;SDS011;22094;52.130;5.598;2022-11-13T04:11:36;28.13;;;19.52;;
23716;SDS011;22094;52.130;5.598;2022-11-13T04:14:01;31.58;;;20.13;;
23716;SDS011;22094;52.130;5.598;2022-11-13T04:16:27;34.03;;;20.35;;
23716;SDS011;22094;52.130;5.598;2022-11-13T04:18:53;33.17;;;19.90;;
23716;SDS011;22094;52.130;5.598;2022-11-13T04:21:18;31.75;;;20.00;;
23716;SDS011;22094;52.130;5.598;2022-11-13T04:23:44;28.30;;;20.02;;
23716;SDS011;22094;52.130;5.598;2022-11-13T04:26:10;30.08;;;20.00;;
23716;SDS011;22094;52.130;5.598;2022-11-13T04:28:35;30.05;;;20.13;;
23716;SDS011;22094;52.130;5.598;2022-11-13T04:31:01;32.22;;;20.30;;
23716;SDS011;22094;52.130;5.598;2022-11-13T04:33:26;31.27;;;21.10;;
23716;SDS011;22094;52.130;5.598;2022-11-13T04:35:52;30.33;;;20.17;;
23716;SDS011;22094;52.130;5.598;2022-11-13T04:38:17;30.25;;;19.65;;
23716;SDS011;22094;52.130;5.598;2022-11-13T04:40:43;30.27;;;20.02;;
23716;SDS011;22094;52.130;5.598;2022-11-13T04:43:08;28.70;;;20.13;;
23716;SDS011;22094;52.130;5.598;2022-11-13T04:45:34;32.38;;;20.23;;
23716;SDS011;22094;52.130;5.598;2022-11-13T04:48:01;35.53;;;20.55;;
23716;SDS011;22094;52.130;5.598;2022-11-13T04:50:26;29.42;;;19.98;;
23716;SDS011;22094;52.130;5.598;2022-11-13T04:52:52;28.63;;;19.05;;
23716;SDS011;22094;52.130;5.598;2022-11-13T04:55:18;28.38;;;19.20;;
23716;SDS011;22094;52.130;5.598;2022-11-13T04:57:43;27.95;;;19.48;;
23716;SDS011;22094;52.130;5.598;2022-11-13T05:00:09;31.90;;;20.05;;
23716;SDS011;22094;52.130;5.598;2022-11-13T05:02:35;33.17;;;21.40;;
23716;SDS011;22094;52.130;5.598;2022-11-13T05:05:00;36.13;;;22.05;;
23716;SDS011;22094;52.130;5.598;2022-11-13T05:07:26;34.90;;;22.08;;
23716;SDS011;22094;52.130;5.598;2022-11-13T05:09:52;28.70;;;19.98;;
23716;SDS011;22094;52.130;5.598;2022-11-13T05:12:17;28.60;;;19.63;;
23716;SDS011;22094;52.130;5.598;2022-11-13T05:14:43;32.53;;;20.65;;
23716;SDS011;22094;52.130;5.598;2022-11-13T05:17:09;31.65;;;21.25;;
23716;SDS011;22094;52.130;5.598;2022-11-13T05:19:36;31.83;;;20.42;;
23716;SDS011;22094;52.130;5.598;2022-11-13T05:22:02;39.20;;;22.00;;
23716;SDS011;22094;52.130;5.598;2022-11-13T05:24:28;34.40;;;22.50;;
23716;SDS011;22094;52.130;5.598;2022-11-13T05:26:54;37.13;;;22.75;;
23716;SDS011;22094;52.130;5.598;2022-11-13T05:29:20;42.33;;;24.05;;
23716;SDS011;22094;52.130;5.598;2022-11-13T05:31:47;37.58;;;24.05;;
23716;SDS011;22094;52.130;5.598;2022-11-13T05:34:13;40.33;;;24.83;;
23716;SDS011;22094;52.130;5.598;2022-11-13T05:36:39;43.75;;;26.67;;
23716;SDS011;22094;52.130;5.598;2022-11-13T05:39:04;40.60;;;24.63;;
23716;SDS011;22094;52.130;5.598;2022-11-13T05:41:30;40.92;;;25.25;;
23716;SDS011;22094;52.130;5.598;2022-11-13T05:43:56;39.63;;;25.42;;
23716;SDS011;22094;52.130;5.598;2022-11-13T05:46:23;41.22;;;24.55;;
23716;SDS011;22094;52.130;5.598;2022-11-13T05:48:51;35.63;;;24.08;;
23716;SDS011;22094;52.130;5.598;2022-11-13T05:51:22;43.03;;;24.23;;
23716;SDS011;22094;52.130;5.598;2022-11-13T05:53:49;36.50;;;23.42;;
23716;SDS011;22094;52.130;5.598;2022-11-13T05:56:17;35.10;;;22.95;;
23716;SDS011;22094;52.130;5.598;2022-11-13T05:58:44;35.85;;;22.05;;
23716;SDS011;22094;52.130;5.598;2022-11-13T06:01:12;35.00;;;22.70;;
23716;SDS011;22094;52.130;5.598;2022-11-13T06:03:43;33.28;;;22.02;;
23716;SDS011;22094;52.130;5.598;2022-11-13T06:06:10;31.65;;;21.13;;
23716;SDS011;22094;52.130;5.598;2022-11-13T06:08:40;37.30;;;23.80;;
23716;SDS011;22094;52.130;5.598;2022-11-13T06:11:07;34.08;;;22.38;;
23716;SDS011;22094;52.130;5.598;2022-11-13T06:13:34;35.22;;;23.33;;
23716;SDS011;22094;52.130;5.598;2022-11-13T06:16:01;33.72;;;23.38;;
23716;SDS011;22094;52.130;5.598;2022-11-13T06:18:29;39.33;;;23.45;;
23716;SDS011;22094;52.130;5.598;2022-11-13T06:20:55;39.15;;;24.20;;
23716;SDS011;22094;52.130;5.598;2022-11-13T06:23:25;37.22;;;23.67;;
23716;SDS011;22094;52.130;5.598;2022-11-13T06:25:50;38.17;;;22.92;;
23716;SDS011;22094;52.130;5.598;2022-11-13T06:28:16;32.53;;;21.83;;
23716;SDS011;22094;52.130;5.598;2022-11-13T06:30:41;35.50;;;22.52;;
23716;SDS011;22094;52.130;5.598;2022-11-13T06:33:07;30.40;;;21.65;;
23716;SDS011;22094;52.130;5.598;2022-11-13T06:35:33;39.30;;;23.50;;
23716;SDS011;22094;52.130;5.598;2022-11-13T06:37:58;38.20;;;24.50;;
23716;SDS011;22094;52.130;5.598;2022-11-13T06:40:24;41.08;;;25.50;;
23716;SDS011;22094;52.130;5.598;2022-11-13T06:42:49;36.17;;;24.65;;
23716;SDS011;22094;52.130;5.598;2022-11-13T06:45:16;37.38;;;24.38;;
23716;SDS011;22094;52.130;5.598;2022-11-13T06:47:41;38.08;;;25.20;;
23716;SDS011;22094;52.130;5.598;2022-11-13T06:50:07;39.65;;;25.13;;
23716;SDS011;22094;52.130;5.598;2022-11-13T06:52:33;36.83;;;24.77;;
23716;SDS011;22094;52.130;5.598;2022-11-13T06:54:59;41.83;;;24.83;;
23716;SDS011;22094;52.130;5.598;2022-11-13T06:57:25;40.60;;;24.77;;
23716;SDS011;22094;52.130;5.598;2022-11-13T06:59:51;39.35;;;25.73;;
23716;SDS011;22094;52.130;5.598;2022-11-13T07:02:16;42.25;;;26.60;;
23716;SDS011;22094;52.130;5.598;2022-11-13T07:04:42;42.45;;;27.00;;
23716;SDS011;22094;52.130;5.598;2022-11-13T07:07:07;37.67;;;26.50;;
23716;SDS011;22094;52.130;5.598;2022-11-13T07:09:33;40.75;;;26.70;;
23716;SDS011;22094;52.130;5.598;2022-11-13T07:11:58;41.90;;;26.63;;
23716;SDS011;22094;52.130;5.598;2022-11-13T07:14:24;47.72;;;27.73;;
23716;SDS011;22094;52.130;5.598;2022-11-13T07:16:49;40.63;;;25.08;;
23716;SDS011;22094;52.130;5.598;2022-11-13T07:19:15;42.13;;;26.52;;
23716;SDS011;22094;52.130;5.598;2022-11-13T07:21:40;46.30;;;27.88;;
23716;SDS011;22094;52.130;5.598;2022-11-13T07:24:06;38.40;;;26.73;;
23716;SDS011;22094;52.130;5.598;2022-11-13T07:26:32;41.53;;;27.17;;
23716;SDS011;22094;52.130;5.598;2022-11-13T07:28:57;43.25;;;28.33;;
23716;SDS011;22094;52.130;5.598;2022-11-13T07:31:23;42.40;;;26.88;;
23716;SDS011;22094;52.130;5.598;2022-11-13T07:33:48;46.42;;;27.73;;
23716;SDS011;22094;52.130;5.598;2022-11-13T07:36:16;38.97;;;27.40;;
23716;SDS011;22094;52.130;5.598;2022-11-13T07:38:41;42.42;;;28.02;;
23716;SDS011;22094;52.130;5.598;2022-11-13T07:41:07;40.92;;;27.58;;
23716;SDS011;22094;52.130;5.598;2022-11-13T07:43:33;43.55;;;27.45;;
23716;SDS011;22094;52.130;5.598;2022-11-13T07:45:58;43.15;;;28.83;;
23716;SDS011;22094;52.130;5.598;2022-11-13T07:48:25;42.75;;;28.00;;
23716;SDS011;22094;52.130;5.598;2022-11-13T07:50:51;46.25;;;28.88;;
23716;SDS011;22094;52.130;5.598;2022-11-13T07:53:18;42.30;;;28.60;;
23716;SDS011;22094;52.130;5.598;2022-11-13T07:55:45;45.70;;;31.13;;
23716;SDS011;22094;52.130;5.598;2022-11-13T07:58:11;45.80;;;32.50;;
23716;SDS011;22094;52.130;5.598;2022-11-13T08:00:37;56.40;;;35.42;;
23716;SDS011;22094;52.130;5.598;2022-11-13T08:03:06;46.17;;;33.58;;
23716;SDS011;22094;52.130;5.598;2022-11-13T08:05:34;42.83;;;31.02;;
23716;SDS011;22094;52.130;5.598;2022-11-13T08:08:00;43.60;;;32.10;;
23716;SDS011;22094;52.130;5.598;2022-11-13T08:10:26;44.90;;;30.77;;
23716;SDS011;22094;52.130;5.598;2022-11-13T08:13:01;43.47;;;30.40;;
23716;SDS011;22094;52.130;5.598;2022-11-13T08:15:29;34.70;;;27.65;;
23716;SDS011;22094;52.130;5.598;2022-11-13T08:17:56;30.17;;;25.08;;
23716;SDS011;22094;52.130;5.598;2022-11-13T08:20:23;29.88;;;23.60;;
23716;SDS011;22094;52.130;5.598;2022-11-13T08:22:49;27.20;;;20.17;;
23716;SDS011;22094;52.130;5.598;2022-11-13T08:25:15;22.95;;;19.23;;
23716;SDS011;22094;52.130;5.598;2022-11-13T08:27:41;23.77;;;18.55;;
23716;SDS011;22094;52.130;5.598;2022-11-13T08:30:07;22.45;;;17.77;;
23716;SDS011;22094;52.130;5.598;2022-11-13T08:32:33;21.40;;;16.40;;
23716;SDS011;22094;52.130;5.598;2022-11-13T08:34:58;17.85;;;15.68;;
23716;SDS011;22094;52.130;5.598;2022-11-13T08:37:24;19.23;;;16.00;;
23716;SDS011;22094;52.130;5.598;2022-11-13T08:39:49;18.67;;;15.80;;
23716;SDS011;22094;52.130;5.598;2022-11-13T08:42:15;20.27;;;15.40;;
23716;SDS011;22094;52.130;5.598;2022-11-13T08:44:40;20.73;;;16.35;;
23716;SDS011;22094;52.130;5.598;2022-11-13T08:47:06;20.95;;;16.17;;
23716;SDS011;22094;52.130;5.598;2022-11-13T08:49:32;19.10;;;14.93;;
23716;SDS011;22094;52.130;5.598;2022-11-13T08:51:57;23.92;;;16.92;;
23716;SDS011;22094;52.130;5.598;2022-11-13T08:54:23;21.98;;;17.10;;
23716;SDS011;22094;52.130;5.598;2022-11-13T08:56:49;22.13;;;17.35;;
23716;SDS011;22094;52.130;5.598;2022-11-13T08:59:15;19.58;;;16.05;;
23716;SDS011;22094;52.130;5.598;2022-11-13T09:01:40;20.58;;;16.45;;
23716;SDS011;22094;52.130;5.598;2022-11-13T09:04:07;23.40;;;15.63;;
23716;SDS011;22094;52.130;5.598;2022-11-13T09:06:32;22.02;;;16.25;;
23716;SDS011;22094;52.130;5.598;2022-11-13T09:08:58;20.48;;;15.77;;
23716;SDS011;22094;52.130;5.598;2022-11-13T09:11:24;20.58;;;15.15;;
23716;SDS011;22094;52.130;5.598;2022-11-13T09:13:53;20.45;;;15.23;;
23716;SDS011;22094;52.130;5.598;2022-11-13T09:16:19;21.02;;;15.32;;
23716;SDS011;22094;52.130;5.598;2022-11-13T09:18:49;19.13;;;15.25;;
23716;SDS011;22094;52.130;5.598;2022-11-13T09:21:15;20.05;;;15.63;;
23716;SDS011;22094;52.130;5.598;2022-11-13T09:23:41;16.60;;;14.32;;
23716;SDS011;22094;52.130;5.598;2022-11-13T09:26:06;19.70;;;14.48;;
23716;SDS011;22094;52.130;5.598;2022-11-13T09:28:32;17.08;;;13.65;;
23716;SDS011;22094;52.130;5.598;2022-11-13T09:30:58;16.35;;;13.63;;
23716;SDS011;22094;52.130;5.598;2022-11-13T09:33:23;16.83;;;14.02;;
23716;SDS011;22094;52.130;5.598;2022-11-13T09:35:49;19.65;;;13.63;;
23716;SDS011;22094;52.130;5.598;2022-11-13T09:38:14;17.58;;;14.20;;
23716;SDS011;22094;52.130;5.598;2022-11-13T09:40:52;15.73;;;13.20;;
23716;SDS011;22094;52.130;5.598;2022-11-13T09:43:32;19.80;;;12.70;;
23716;SDS011;22094;52.130;5.598;2022-11-13T09:46:09;13.48;;;11.57;;
23716;SDS011;22094;52.130;5.598;2022-11-13T09:48:43;16.48;;;11.68;;
23716;SDS011;22094;52.130;5.598;2022-11-13T09:51:19;18.60;;;11.98;;
23716;SDS011;22094;52.130;5.598;2022-11-13T09:53:48;12.13;;;10.70;;
23716;SDS011;22094;52.130;5.598;2022-11-13T09:56:20;13.80;;;11.38;;
23716;SDS011;22094;52.130;5.598;2022-11-13T10:01:54;18.08;;;13.10;;
23716;SDS011;22094;52.130;5.598;2022-11-13T10:07:14;13.07;;;11.05;;
23716;SDS011;22094;52.130;5.598;2022-11-13T10:12:26;16.48;;;12.80;;
23716;SDS011;22094;52.130;5.598;2022-11-13T10:14:54;13.65;;;10.70;;
23716;SDS011;22094;52.130;5.598;2022-11-13T10:17:26;12.93;;;10.73;;
23716;SDS011;22094;52.130;5.598;2022-11-13T10:20:02;14.45;;;10.52;;
23716;SDS011;22094;52.130;5.598;2022-11-13T10:22:38;14.63;;;11.13;;
23716;SDS011;22094;52.130;5.598;2022-11-13T10:25:13;13.70;;;9.57;;
23716;SDS011;22094;52.130;5.598;2022-11-13T10:27:41;12.73;;;10.45;;
23716;SDS011;22094;52.130;5.598;2022-11-13T10:30:15;11.73;;;9.40;;
23716;SDS011;22094;52.130;5.598;2022-11-13T10:32:43;11.00;;;8.05;;
23716;SDS011;22094;52.130;5.598;2022-11-13T10:38:01;13.88;;;10.15;;
23716;SDS011;22094;52.130;5.598;2022-11-13T10:40:46;10.60;;;8.20;;
23716;SDS011;22094;52.130;5.598;2022-11-13T10:43:19;14.63;;;8.65;;
23716;SDS011;22094;52.130;5.598;2022-11-13T10:51:01;10.75;;;8.98;;
23716;SDS011;22094;52.130;5.598;2022-11-13T10:53:36;11.13;;;8.88;;
23716;SDS011;22094;52.130;5.598;2022-11-13T10:59:07;9.68;;;7.50;;
23716;SDS011;22094;52.130;5.598;2022-11-13T11:01:35;9.68;;;8.68;;
23716;SDS011;22094;52.130;5.598;2022-11-13T11:04:02;10.88;;;8.15;;
23716;SDS011;22094;52.130;5.598;2022-11-13T11:06:35;8.95;;;8.00;;
23716;SDS011;22094;52.130;5.598;2022-11-13T11:11:37;9.48;;;7.50;;
23716;SDS011;22094;52.130;5.598;2022-11-13T11:14:24;8.68;;;7.35;;
23716;SDS011;22094;52.130;5.598;2022-11-13T11:16:54;9.73;;;7.65;;
23716;SDS011;22094;52.130;5.598;2022-11-13T11:19:23;7.70;;;6.90;;
23716;SDS011;22094;52.130;5.598;2022-11-13T11:21:56;9.02;;;6.72;;
23716;SDS011;22094;52.130;5.598;2022-11-13T11:24:34;9.00;;;6.93;;
23716;SDS011;22094;52.130;5.598;2022-11-13T11:27:04;10.60;;;6.70;;
23716;SDS011;22094;52.130;5.598;2022-11-13T11:29:37;8.18;;;6.57;;
23716;SDS011;22094;52.130;5.598;2022-11-13T11:35:13;7.32;;;6.32;;
23716;SDS011;22094;52.130;5.598;2022-11-13T11:37:47;6.82;;;6.13;;
23716;SDS011;22094;52.130;5.598;2022-11-13T11:40:21;7.07;;;6.28;;
23716;SDS011;22094;52.130;5.598;2022-11-13T11:45:40;6.93;;;6.20;;
23716;SDS011;22094;52.130;5.598;2022-11-13T11:48:09;13.95;;;10.75;;
23716;SDS011;22094;52.130;5.598;2022-11-13T11:50:46;10.82;;;6.85;;
23716;SDS011;22094;52.130;5.598;2022-11-13T11:53:32;13.65;;;9.68;;
23716;SDS011;22094;52.130;5.598;2022-11-13T11:59:00;13.80;;;8.52;;
23716;SDS011;22094;52.130;5.598;2022-11-13T12:01:35;18.40;;;10.50;;
23716;SDS011;22094;52.130;5.598;2022-11-13T12:15:10;15.70;;;9.30;;
23716;SDS011;22094;52.130;5.598;2022-11-13T12:18:07;10.07;;;6.03;;
23716;SDS011;22094;52.130;5.598;2022-11-13T12:20:56;4.22;;;3.40;;
23716;SDS011;22094;52.130;5.598;2022-11-13T12:23:42;5.47;;;2.80;;
23716;SDS011;22094;52.130;5.598;2022-11-13T12:26:30;11.07;;;7.28;;
23716;SDS011;22094;52.130;5.598;2022-11-13T12:29:26;4.28;;;3.30;;
23716;SDS011;22094;52.130;5.598;2022-11-13T12:35:17;6.20;;;3.30;;
23716;SDS011;22094;52.130;5.598;2022-11-13T12:41:21;3.72;;;2.90;;
23716;SDS011;22094;52.130;5.598;2022-11-13T12:43:44;3.42;;;3.00;;
23716;SDS011;22094;52.130;5.598;2022-11-13T12:46:31;3.45;;;2.70;;
23716;SDS011;22094;52.130;5.598;2022-11-13T12:48:58;2.90;;;2.60;;
23716;SDS011;22094;52.130;5.598;2022-11-13T12:51:25;6.43;;;4.78;;
23716;SDS011;22094;52.130;5.598;2022-11-13T12:54:02;4.93;;;3.90;;
23716;SDS011;22094;52.130;5.598;2022-11-13T12:56:30;4.63;;;2.50;;
23716;SDS011;22094;52.130;5.598;2022-11-13T13:07:22;2.90;;;2.60;;
23716;SDS011;22094;52.130;5.598;2022-11-13T13:13:06;2.17;;;1.92;;
23716;SDS011;22094;52.130;5.598;2022-11-13T13:15:37;1.60;;;1.50;;
23716;SDS011;22094;52.130;5.598;2022-11-13T13:18:09;3.47;;;2.13;;
23716;SDS011;22094;52.130;5.598;2022-11-13T13:20:45;2.70;;;2.50;;
23716;SDS011;22094;52.130;5.598;2022-11-13T13:23:38;2.10;;;1.90;;
23716;SDS011;22094;52.130;5.598;2022-11-13T13:28:51;2.58;;;2.17;;
23716;SDS011;22094;52.130;5.598;2022-11-13T13:31:27;1.90;;;1.70;;
23716;SDS011;22094;52.130;5.598;2022-11-13T13:37:03;4.05;;;2.50;;
23716;SDS011;22094;52.130;5.598;2022-11-13T13:42:32;2.60;;;2.40;;
23716;SDS011;22094;52.130;5.598;2022-11-13T13:47:59;5.63;;;3.45;;
23716;SDS011;22094;52.130;5.598;2022-11-13T13:50:30;6.60;;;4.03;;
23716;SDS011;22094;52.130;5.598;2022-11-13T13:52:58;2.10;;;1.90;;
23716;SDS011;22094;52.130;5.598;2022-11-13T13:55:31;1.83;;;1.70;;
23716;SDS011;22094;52.130;5.598;2022-11-13T13:58:00;3.25;;;1.90;;
23716;SDS011;22094;52.130;5.598;2022-11-13T14:00:28;2.10;;;1.90;;
23716;SDS011;22094;52.130;5.598;2022-11-13T14:02:54;5.20;;;2.70;;
23716;SDS011;22094;52.130;5.598;2022-11-13T14:05:24;2.40;;;2.17;;
23716;SDS011;22094;52.130;5.598;2022-11-13T14:07:59;3.55;;;2.17;;
23716;SDS011;22094;52.130;5.598;2022-11-13T14:10:27;4.30;;;2.05;;
23716;SDS011;22094;52.130;5.598;2022-11-13T14:12:53;2.15;;;1.92;;
23716;SDS011;22094;52.130;5.598;2022-11-13T14:15:24;3.40;;;1.98;;
23716;SDS011;22094;52.130;5.598;2022-11-13T14:18:14;2.10;;;1.65;;
23716;SDS011;22094;52.130;5.598;2022-11-13T14:20:51;2.45;;;2.10;;
23716;SDS011;22094;52.130;5.598;2022-11-13T14:23:21;4.93;;;2.65;;
23716;SDS011;22094;52.130;5.598;2022-11-13T14:25:51;3.08;;;2.58;;
23716;SDS011;22094;52.130;5.598;2022-11-13T14:28:18;6.05;;;4.05;;
23716;SDS011;22094;52.130;5.598;2022-11-13T14:30:56;5.40;;;4.70;;
23716;SDS011;22094;52.130;5.598;2022-11-13T14:33:27;7.07;;;3.83;;
23716;SDS011;22094;52.130;5.598;2022-11-13T14:35:56;6.25;;;4.82;;
23716;SDS011;22094;52.130;5.598;2022-11-13T14:38:26;3.72;;;3.03;;
23716;SDS011;22094;52.130;5.598;2022-11-13T14:40:55;6.47;;;3.63;;
23716;SDS011;22094;52.130;5.598;2022-11-13T14:43:22;3.83;;;2.50;;
23716;SDS011;22094;52.130;5.598;2022-11-13T14:46:02;5.50;;;2.92;;
23716;SDS011;22094;52.130;5.598;2022-11-13T14:48:30;3.08;;;2.30;;
23716;SDS011;22094;52.130;5.598;2022-11-13T14:50:58;3.65;;;2.17;;
23716;SDS011;22094;52.130;5.598;2022-11-13T14:53:26;3.42;;;2.22;;
23716;SDS011;22094;52.130;5.598;2022-11-13T14:56:17;2.85;;;2.17;;
23716;SDS011;22094;52.130;5.598;2022-11-13T14:58:43;4.20;;;2.20;;
23716;SDS011;22094;52.130;5.598;2022-11-13T15:01:17;4.57;;;3.10;;
23716;SDS011;22094;52.130;5.598;2022-11-13T15:03:48;3.42;;;2.92;;
23716;SDS011;22094;52.130;5.598;2022-11-13T15:08:53;7.53;;;2.22;;
23716;SDS011;22094;52.130;5.598;2022-11-13T15:11:24;6.30;;;3.80;;
23716;SDS011;22094;52.130;5.598;2022-11-13T15:13:51;4.95;;;3.20;;
23716;SDS011;22094;52.130;5.598;2022-11-13T15:16:26;2.47;;;2.22;;
23716;SDS011;22094;52.130;5.598;2022-11-13T15:18:57;5.95;;;2.53;;
23716;SDS011;22094;52.130;5.598;2022-11-13T15:21:33;9.10;;;4.80;;
23716;SDS011;22094;52.130;5.598;2022-11-13T15:23:59;8.57;;;4.57;;
23716;SDS011;22094;52.130;5.598;2022-11-13T15:26:25;6.38;;;4.13;;
23716;SDS011;22094;52.130;5.598;2022-11-13T15:28:51;5.72;;;3.38;;
23716;SDS011;22094;52.130;5.598;2022-11-13T15:31:25;7.65;;;3.60;;
23716;SDS011;22094;52.130;5.598;2022-11-13T15:33:57;10.40;;;4.20;;
23716;SDS011;22094;52.130;5.598;2022-11-13T15:36:23;6.88;;;4.35;;
23716;SDS011;22094;52.130;5.598;2022-11-13T15:38:48;5.97;;;4.40;;
23716;SDS011;22094;52.130;5.598;2022-11-13T15:41:15;10.05;;;5.00;;
23716;SDS011;22094;52.130;5.598;2022-11-13T15:43:47;10.30;;;4.75;;
23716;SDS011;22094;52.130;5.598;2022-11-13T15:46:15;6.30;;;4.68;;
23716;SDS011;22094;52.130;5.598;2022-11-13T15:48:43;6.95;;;5.40;;
23716;SDS011;22094;52.130;5.598;2022-11-13T15:51:20;7.78;;;5.80;;
23716;SDS011;22094;52.130;5.598;2022-11-13T15:53:54;8.43;;;6.03;;
23716;SDS011;22094;52.130;5.598;2022-11-13T15:56:24;10.43;;;6.78;;